createdAt,value
2023-04-29T01:45:32.858Z,95.40
2023-04-29T01:46:09.440Z,95.50
2023-04-29T01:46:44.745Z,95.50
2023-04-29T01:47:19.424Z,95.60
2023-04-29T01:47:59.479Z,95.60
2023-04-29T01:48:34.671Z,95.60
2023-04-29T01:49:09.236Z,95.60
2023-04-29T01:49:47.535Z,95.60
2023-04-29T01:50:22.792Z,95.60
2023-04-29T01:50:56.118Z,95.70
2023-04-29T01:51:30.471Z,95.70
2023-04-29T01:52:07.201Z,95.70
2023-04-29T01:52:42.085Z,95.70
2023-04-29T01:53:16.022Z,95.70
2023-04-29T01:53:51.768Z,95.70
2023-04-29T01:54:26.767Z,95.70
2023-04-29T01:55:02.374Z,95.70
2023-04-29T01:55:46.822Z,95.70
2023-04-29T01:56:26.595Z,95.70
2023-04-29T01:57:11.465Z,95.90
2023-04-29T01:58:01.459Z,95.70
2023-04-29T01:58:53.812Z,95.80
2023-04-29T01:59:57.902Z,95.60
2023-04-29T02:00:47.056Z,95.60
2023-04-29T02:01:21.165Z,95.60
2023-04-29T02:01:54.222Z,95.70
2023-04-29T02:02:29.116Z,95.60
2023-04-29T02:03:10.642Z,95.60
2023-04-29T02:03:48.443Z,95.60
2023-04-29T02:04:25.260Z,95.60
2023-04-29T02:04:59.655Z,95.60
2023-04-29T02:05:34.845Z,95.60
2023-04-29T02:06:09.839Z,95.70
2023-04-29T02:06:43.412Z,95.70
2023-04-29T02:07:17.049Z,95.70
2023-04-29T02:07:54.912Z,95.70
2023-04-29T02:08:28.557Z,95.70
2023-04-29T02:09:03.088Z,95.60
2023-04-29T02:09:40.507Z,95.60
2023-04-29T02:10:18.911Z,95.60
2023-04-29T02:10:56.120Z,95.60
2023-04-29T02:11:41.529Z,95.90
2023-04-29T02:12:14.983Z,95.50
2023-04-29T02:12:49.000Z,95.30
2023-04-29T02:13:42.521Z,95.20
2023-04-29T02:14:16.670Z,95.10
2023-04-29T02:14:54.455Z,95.20
2023-04-29T02:15:27.827Z,95.30
2023-04-29T02:16:09.127Z,95.30
2023-04-29T02:16:46.435Z,95.40
2023-04-29T02:17:21.096Z,95.50
2023-04-29T02:17:54.475Z,95.50
2023-04-29T02:18:28.875Z,95.50
2023-04-29T02:19:03.059Z,95.60
2023-04-29T02:19:37.072Z,95.50
2023-04-29T02:20:13.100Z,95.50
2023-04-29T02:20:46.540Z,95.50
2023-04-29T02:21:20.552Z,95.60
2023-04-29T02:21:54.925Z,95.60
2023-04-29T02:22:29.793Z,95.60
2023-04-29T02:23:04.628Z,95.50
2023-04-29T02:23:38.559Z,95.50
2023-04-29T02:24:11.459Z,95.40
2023-04-29T02:24:46.042Z,95.30
2023-04-29T02:25:19.995Z,95.40
2023-04-29T02:25:53.546Z,95.40
2023-04-29T02:26:27.516Z,95.40
2023-04-29T02:27:06.562Z,95.50
2023-04-29T02:27:40.492Z,95.50
2023-04-29T02:28:13.843Z,95.60
2023-04-29T02:28:50.207Z,95.50
2023-04-29T02:29:24.518Z,95.50
2023-04-29T02:30:00.193Z,95.50
2023-04-29T02:30:34.101Z,95.50
2023-04-29T02:31:07.202Z,95.50
2023-04-29T02:31:41.728Z,95.50
2023-04-29T02:32:20.742Z,95.50
2023-04-29T02:32:53.866Z,95.40
2023-04-29T02:33:30.651Z,95.50
2023-04-29T02:34:05.349Z,95.50
2023-04-29T02:34:41.037Z,95.50
2023-04-29T02:35:15.727Z,95.40
2023-04-29T02:35:49.180Z,95.40
2023-04-29T02:36:27.256Z,95.40
2023-04-29T02:37:01.172Z,95.50
2023-04-29T02:37:35.163Z,95.50
2023-04-29T02:38:09.673Z,95.50
2023-04-29T02:38:43.277Z,95.50
2023-04-29T02:39:17.562Z,95.50
2023-04-29T02:39:54.295Z,95.60
2023-04-29T02:40:27.341Z,95.60
2023-04-29T02:41:01.038Z,95.50
2023-04-29T02:41:33.717Z,95.50
2023-04-29T02:42:07.558Z,95.50
2023-04-29T02:42:44.598Z,95.50
2023-04-29T02:43:18.357Z,95.50
2023-04-29T02:43:53.319Z,95.60
2023-04-29T02:44:27.064Z,95.60
2023-04-29T02:45:00.904Z,95.50
2023-04-29T02:45:36.276Z,95.50
2023-04-29T02:46:10.666Z,95.50
2023-04-29T02:46:46.437Z,95.50
2023-04-29T02:47:21.015Z,95.50
2023-04-29T02:47:54.626Z,95.50
2023-04-29T02:48:28.051Z,95.60
2023-04-29T02:49:02.413Z,95.60
2023-04-29T02:49:36.919Z,95.60
2023-04-29T02:50:10.270Z,95.50
2023-04-29T02:50:44.506Z,95.60
2023-04-29T02:51:18.440Z,95.60
2023-04-29T02:51:55.025Z,95.60
2023-04-29T02:52:29.991Z,95.60
2023-04-29T02:53:03.956Z,95.90
2023-04-29T02:53:38.108Z,95.70
2023-04-29T02:54:11.925Z,95.60
2023-04-29T02:54:46.201Z,95.60
2023-04-29T02:55:21.905Z,95.60
2023-04-29T02:55:55.248Z,95.60
2023-04-29T02:56:28.286Z,95.60
2023-04-29T02:57:03.460Z,95.50
2023-04-29T02:57:36.283Z,95.50
2023-04-29T02:58:10.728Z,95.40
2023-04-29T02:58:46.872Z,95.50
2023-04-29T02:59:20.049Z,95.50
2023-04-29T02:59:53.191Z,95.50
2023-04-29T03:00:27.778Z,95.50
2023-04-29T03:01:01.233Z,95.40
2023-04-29T03:01:35.291Z,95.50
2023-04-29T03:02:10.141Z,95.50
2023-04-29T03:02:44.923Z,95.50
2023-04-29T03:03:19.426Z,95.50
2023-04-29T03:03:55.351Z,95.50
2023-04-29T03:04:29.427Z,95.60
2023-04-29T03:05:04.703Z,95.60
2023-04-29T03:05:38.116Z,95.60
2023-04-29T03:06:12.313Z,95.60
2023-04-29T03:06:46.413Z,95.60
2023-04-29T03:07:19.474Z,95.60
2023-04-29T03:07:53.471Z,95.60
2023-04-29T03:08:29.258Z,95.60
2023-04-29T03:09:03.251Z,95.60
2023-04-29T03:09:36.974Z,95.60
2023-04-29T03:10:13.734Z,95.60
2023-04-29T03:10:49.132Z,95.60
2023-04-29T03:11:24.962Z,95.60
2023-04-29T03:11:57.598Z,95.60
2023-04-29T03:12:32.244Z,95.60
2023-04-29T03:13:08.211Z,95.60
2023-04-29T03:13:44.238Z,95.60
2023-04-29T03:14:19.253Z,95.60
2023-04-29T03:14:53.545Z,95.60
2023-04-29T03:15:30.441Z,95.60
2023-04-29T03:16:05.331Z,95.60
2023-04-29T03:16:39.266Z,95.60
2023-04-29T03:17:12.561Z,95.60
2023-04-29T03:17:47.078Z,95.60
2023-04-29T03:18:22.326Z,95.70
2023-04-29T03:18:57.625Z,95.70
2023-04-29T03:19:32.741Z,95.70
2023-04-29T03:20:10.849Z,95.70
2023-04-29T03:20:44.276Z,95.70
2023-04-29T03:21:20.665Z,95.70
2023-04-29T03:21:54.715Z,95.70
2023-04-29T03:22:29.226Z,95.70
2023-04-29T03:23:04.459Z,95.60
2023-04-29T03:23:40.240Z,95.50
2023-04-29T03:24:17.279Z,95.60
2023-04-29T03:24:51.977Z,95.60
2023-04-29T03:25:26.596Z,95.80
2023-04-29T03:26:03.851Z,95.60
2023-04-29T03:26:37.521Z,95.50
2023-04-29T03:27:11.383Z,95.50
2023-04-29T03:27:46.205Z,95.60
2023-04-29T03:28:20.651Z,95.50
2023-04-29T03:28:56.245Z,95.50
2023-04-29T03:29:31.075Z,95.60
2023-04-29T03:30:05.410Z,95.60
2023-04-29T03:30:39.567Z,95.70
2023-04-29T03:31:16.525Z,95.60
2023-04-29T03:31:50.389Z,95.70
2023-04-29T03:32:24.920Z,95.60
2023-04-29T03:32:59.538Z,95.70
2023-04-29T03:33:35.237Z,95.70
2023-04-29T03:34:09.493Z,95.70
2023-04-29T03:34:46.421Z,95.60
2023-04-29T03:35:37.720Z,95.60
2023-04-29T03:36:37.942Z,95.50
2023-04-29T03:37:17.167Z,95.50
2023-04-29T03:37:57.700Z,95.50
2023-04-29T03:38:36.665Z,95.60
2023-04-29T03:39:12.040Z,95.50
2023-04-29T03:39:45.501Z,95.50
2023-04-29T03:40:22.311Z,95.50
2023-04-29T03:40:56.961Z,95.60
2023-04-29T03:41:31.212Z,95.50
2023-04-29T03:42:06.493Z,95.50
2023-04-29T03:42:40.571Z,95.60
2023-04-29T03:43:14.752Z,95.60
2023-04-29T03:43:48.954Z,95.60
2023-04-29T03:44:22.634Z,95.60
2023-04-29T03:44:55.875Z,95.60
2023-04-29T03:45:31.184Z,95.60
2023-04-29T03:46:05.396Z,95.60
2023-04-29T03:46:39.088Z,95.60
2023-04-29T03:47:14.162Z,95.70
2023-04-29T03:47:47.599Z,95.70
2023-04-29T03:48:22.100Z,95.70
2023-04-29T03:48:59.895Z,95.70
2023-04-29T03:49:34.603Z,95.70
2023-04-29T03:50:09.274Z,95.70
2023-04-29T03:50:45.193Z,95.70
2023-04-29T03:51:18.477Z,95.70
2023-04-29T03:51:54.713Z,95.70
2023-04-29T03:52:29.423Z,95.60
2023-04-29T03:53:08.988Z,95.60
2023-04-29T03:53:42.522Z,95.60
2023-04-29T03:54:17.136Z,95.60
2023-04-29T03:54:51.319Z,95.60
2023-04-29T03:55:24.861Z,95.70
2023-04-29T03:55:58.872Z,95.70
2023-04-29T03:56:34.385Z,95.70
2023-04-29T03:57:07.957Z,95.80
2023-04-29T03:57:42.564Z,95.70
2023-04-29T03:58:17.431Z,95.80
2023-04-29T03:58:52.386Z,95.70
2023-04-29T03:59:27.373Z,95.80
2023-04-29T04:00:01.116Z,95.90
2023-04-29T04:00:35.747Z,95.80
2023-04-29T04:01:13.677Z,95.80
2023-04-29T04:01:54.906Z,95.80
2023-04-29T04:02:28.640Z,95.90
2023-04-29T04:03:05.532Z,95.80
2023-04-29T04:03:44.104Z,95.80
2023-04-29T04:04:19.188Z,95.80
2023-04-29T04:04:56.297Z,95.90
2023-04-29T04:05:30.136Z,95.90
2023-04-29T04:06:11.066Z,95.90
2023-04-29T04:06:51.142Z,95.80
2023-04-29T04:07:26.596Z,95.80
2023-04-29T04:08:30.517Z,95.90
2023-04-29T04:09:20.826Z,95.80
2023-04-29T04:09:54.957Z,95.80
2023-04-29T04:10:30.717Z,95.80
2023-04-29T04:11:06.261Z,95.70
2023-04-29T04:11:44.781Z,95.80
2023-04-29T04:12:21.445Z,95.80
2023-04-29T04:12:55.372Z,95.90
2023-04-29T04:13:29.303Z,95.90
2023-04-29T04:14:04.986Z,95.90
2023-04-29T04:14:38.992Z,95.90
2023-04-29T04:15:13.930Z,95.90
2023-04-29T04:15:52.361Z,95.90
2023-04-29T04:16:26.478Z,95.90
2023-04-29T04:17:01.368Z,95.90
2023-04-29T04:17:35.923Z,95.90
2023-04-29T04:18:09.424Z,95.80
2023-04-29T04:18:43.654Z,95.90
2023-04-29T04:19:19.513Z,95.90
2023-04-29T04:19:53.863Z,95.90
2023-04-29T04:20:28.007Z,95.90
2023-04-29T04:21:07.690Z,95.90
2023-04-29T04:21:42.574Z,96.00
2023-04-29T04:22:18.388Z,96.00
2023-04-29T04:23:07.348Z,96.10
2023-04-29T04:23:41.234Z,96.10
2023-04-29T04:24:18.606Z,96.10
2023-04-29T04:24:53.644Z,96.10
2023-04-29T04:25:26.627Z,96.10
2023-04-29T04:26:04.393Z,96.00
2023-04-29T04:26:58.979Z,96.00
2023-04-29T04:27:38.571Z,96.00
2023-04-29T04:28:16.828Z,96.00
2023-04-29T04:29:07.723Z,95.90
2023-04-29T04:29:55.256Z,95.80
2023-04-29T04:30:36.791Z,95.80
2023-04-29T04:31:11.836Z,95.80
2023-04-29T04:31:47.224Z,95.80
2023-04-29T04:32:24.344Z,95.70
2023-04-29T04:32:59.217Z,95.70
2023-04-29T04:33:32.404Z,95.80
2023-04-29T04:34:06.070Z,95.80
2023-04-29T04:34:42.042Z,95.80
2023-04-29T04:35:16.445Z,95.80
2023-04-29T04:35:50.278Z,95.80
2023-04-29T04:36:25.167Z,95.80
2023-04-29T04:36:59.462Z,95.80
2023-04-29T04:37:33.447Z,95.80
2023-04-29T04:38:09.377Z,95.80
2023-04-29T04:38:44.414Z,95.70
2023-04-29T04:39:19.840Z,95.80
2023-04-29T04:39:57.039Z,95.80
2023-04-29T04:40:31.096Z,95.80
2023-04-29T04:41:25.241Z,95.90
2023-04-29T04:42:03.346Z,95.80
2023-04-29T04:42:40.780Z,95.80
2023-04-29T04:43:20.969Z,95.80
2023-04-29T04:43:54.772Z,95.70
2023-04-29T04:44:39.023Z,95.70
2023-04-29T04:45:15.564Z,95.80
2023-04-29T04:45:55.855Z,95.80
2023-04-29T04:46:30.466Z,95.90
2023-04-29T04:47:20.757Z,95.90
2023-04-29T04:48:05.095Z,96.00
2023-04-29T04:48:42.210Z,96.00
2023-04-29T04:49:18.059Z,96.00
2023-04-29T04:50:00.490Z,96.10
2023-04-29T04:50:35.180Z,96.00
2023-04-29T04:51:11.467Z,96.00
2023-04-29T04:51:46.366Z,96.10
2023-04-29T04:52:22.080Z,96.10
2023-04-29T04:53:06.375Z,96.10
2023-04-29T04:53:56.034Z,96.20
2023-04-29T04:54:31.594Z,96.20
2023-04-29T04:55:17.124Z,96.10
2023-04-29T04:55:54.336Z,96.10
2023-04-29T04:56:28.274Z,96.10
2023-04-29T04:57:06.361Z,96.10
2023-04-29T04:57:41.695Z,96.10
2023-04-29T04:58:15.042Z,96.20
2023-04-29T04:58:48.559Z,96.10
2023-04-29T04:59:23.334Z,96.00
2023-04-29T04:59:58.377Z,96.00
2023-04-29T05:00:32.164Z,95.90
2023-04-29T05:01:07.453Z,95.90
2023-04-29T05:01:41.219Z,95.90
2023-04-29T05:02:16.173Z,95.80
2023-04-29T05:02:50.220Z,95.70
2023-04-29T05:03:22.968Z,95.60
2023-04-29T05:03:58.528Z,95.50
2023-04-29T05:04:33.810Z,95.60
2023-04-29T05:05:07.484Z,95.60
2023-04-29T05:05:43.296Z,95.50
2023-04-29T05:06:19.008Z,95.60
2023-04-29T05:06:54.112Z,95.60
2023-04-29T05:07:29.998Z,95.60
2023-04-29T05:08:09.691Z,95.60
2023-04-29T05:08:48.182Z,95.60
2023-04-29T05:09:23.655Z,95.50
2023-04-29T05:09:57.976Z,95.50
2023-04-29T05:10:31.727Z,95.50
2023-04-29T05:11:09.206Z,95.40
2023-04-29T05:11:42.697Z,95.40
2023-04-29T05:12:21.175Z,95.40
2023-04-29T05:12:55.030Z,95.30
2023-04-29T05:13:28.636Z,95.20
2023-04-29T05:14:02.573Z,95.30
2023-04-29T05:14:38.242Z,95.20
2023-04-29T05:15:15.154Z,95.20
2023-04-29T05:15:49.639Z,95.20
2023-04-29T05:16:29.872Z,95.30
2023-04-29T05:17:04.719Z,95.20
2023-04-29T05:17:38.602Z,95.30
2023-04-29T05:18:12.975Z,95.00
2023-04-29T05:18:50.078Z,95.10
2023-04-29T05:19:24.810Z,95.10
2023-04-29T05:19:58.664Z,95.20
2023-04-29T05:20:32.958Z,95.20
2023-04-29T05:21:07.757Z,95.20
2023-04-29T05:21:42.233Z,95.30
2023-04-29T05:22:17.645Z,95.30
2023-04-29T05:22:50.254Z,95.30
2023-04-29T05:23:25.669Z,95.30
2023-04-29T05:23:58.557Z,95.30
2023-04-29T05:24:34.378Z,95.30
2023-04-29T05:25:11.879Z,95.30
2023-04-29T05:25:45.292Z,95.20
2023-04-29T05:26:19.439Z,95.20
2023-04-29T05:26:55.797Z,95.20
2023-04-29T05:27:31.375Z,95.30
2023-04-29T05:28:06.245Z,95.30
2023-04-29T05:28:43.221Z,95.30
2023-04-29T05:29:18.086Z,95.30
2023-04-29T05:29:58.954Z,95.30
2023-04-29T05:30:33.362Z,95.30
2023-04-29T05:31:08.283Z,95.30
2023-04-29T05:31:43.817Z,95.20
2023-04-29T05:32:18.225Z,95.20
2023-04-29T05:32:52.430Z,95.10
2023-04-29T05:33:29.804Z,95.00
2023-04-29T05:34:03.824Z,95.00
2023-04-29T05:34:38.008Z,95.10
2023-04-29T05:35:12.722Z,94.80
2023-04-29T05:35:46.497Z,94.90
2023-04-29T05:36:20.385Z,95.00
2023-04-29T05:36:55.516Z,94.90
2023-04-29T05:37:31.309Z,95.00
2023-04-29T05:38:29.714Z,95.00
2023-04-29T05:39:10.942Z,95.00
2023-04-29T05:39:45.509Z,95.00
2023-04-29T05:40:23.450Z,95.10
2023-04-29T05:41:00.657Z,95.10
2023-04-29T05:41:44.546Z,94.90
2023-04-29T05:42:28.792Z,94.90
2023-04-29T05:43:03.027Z,94.90
2023-04-29T05:43:37.858Z,95.00
2023-04-29T05:44:11.699Z,95.00
2023-04-29T05:44:46.154Z,95.00
2023-04-29T05:45:22.238Z,95.00
2023-04-29T05:45:56.203Z,95.00
2023-04-29T05:46:32.049Z,95.00
2023-04-29T05:47:07.064Z,95.00
2023-04-29T05:47:43.487Z,95.00
2023-04-29T05:48:17.186Z,95.00
2023-04-29T05:48:51.719Z,95.00
2023-04-29T05:49:25.176Z,95.00
2023-04-29T05:49:59.622Z,95.00
2023-04-29T05:50:36.812Z,94.90
2023-04-29T05:51:10.501Z,94.90
2023-04-29T05:51:46.264Z,94.90
2023-04-29T05:52:19.901Z,94.90
2023-04-29T05:52:56.700Z,94.90
2023-04-29T05:53:33.996Z,94.90
2023-04-29T05:54:07.335Z,94.80
2023-04-29T05:54:41.698Z,94.80
2023-04-29T05:55:17.003Z,94.60
2023-04-29T05:55:51.816Z,94.70
2023-04-29T05:56:27.462Z,94.60
2023-04-29T05:57:04.837Z,94.60
2023-04-29T05:57:38.192Z,94.60
2023-04-29T05:58:13.042Z,94.60
2023-04-29T05:58:48.289Z,94.70
2023-04-29T05:59:22.231Z,94.70
2023-04-29T06:00:01.545Z,94.70
2023-04-29T06:00:36.320Z,94.70
2023-04-29T06:01:19.583Z,94.70
2023-04-29T06:01:53.507Z,94.70
2023-04-29T06:02:27.702Z,94.70
2023-04-29T06:03:02.906Z,94.80
2023-04-29T06:03:36.406Z,94.80
2023-04-29T06:04:31.519Z,94.80
2023-04-29T06:05:45.267Z,94.80
2023-04-29T06:06:41.737Z,94.60
2023-04-29T06:07:26.967Z,94.60
2023-04-29T06:08:07.374Z,94.50
2023-04-29T06:08:57.424Z,94.40
2023-04-29T06:09:43.502Z,94.30
2023-04-29T06:10:18.006Z,94.30
2023-04-29T06:10:54.117Z,94.20
2023-04-29T06:11:29.384Z,94.40
2023-04-29T06:12:07.292Z,94.20
2023-04-29T06:12:42.835Z,94.30
2023-04-29T06:13:20.187Z,94.10
2023-04-29T06:13:56.940Z,93.90
2023-04-29T06:14:30.535Z,93.80
2023-04-29T06:15:09.389Z,93.90
2023-04-29T06:15:43.978Z,94.00
2023-04-29T06:16:17.328Z,94.00
2023-04-29T06:16:52.051Z,94.00
2023-04-29T06:17:26.753Z,93.80
2023-04-29T06:18:01.310Z,93.80
2023-04-29T06:18:36.066Z,93.80
2023-04-29T06:19:10.059Z,93.70
2023-04-29T06:19:45.014Z,93.70
2023-04-29T06:20:18.989Z,93.60
2023-04-29T06:20:53.567Z,93.60
2023-04-29T06:21:28.138Z,93.60
2023-04-29T06:22:00.933Z,93.60
2023-04-29T06:22:34.888Z,93.70
2023-04-29T06:23:09.664Z,93.60
2023-04-29T06:23:44.311Z,93.60
2023-04-29T06:24:23.658Z,93.50
2023-04-29T06:24:56.926Z,93.50
2023-04-29T06:25:50.193Z,93.40
2023-04-29T06:26:25.054Z,93.40
2023-04-29T06:26:59.598Z,93.40
2023-04-29T06:27:34.851Z,93.30
2023-04-29T06:28:09.287Z,93.20
2023-04-29T06:28:46.768Z,93.20
2023-04-29T06:29:21.317Z,93.30
2023-04-29T06:29:57.211Z,93.30
2023-04-29T06:30:30.379Z,93.30
2023-04-29T06:31:04.175Z,93.40
2023-04-29T06:31:39.465Z,93.50
2023-04-29T06:32:14.576Z,93.50
2023-04-29T06:32:50.823Z,93.50
2023-04-29T06:33:27.016Z,93.30
2023-04-29T06:34:00.369Z,93.30
2023-04-29T06:34:35.006Z,93.30
2023-04-29T06:35:31.390Z,93.30
2023-04-29T06:36:28.371Z,93.10
2023-04-29T06:37:26.840Z,93.00
2023-04-29T06:38:13.019Z,93.10
2023-04-29T06:39:10.715Z,93.00
2023-04-29T06:39:58.775Z,93.00
2023-04-29T06:40:49.917Z,92.90
2023-04-29T06:41:23.840Z,93.10
2023-04-29T06:42:14.611Z,93.00
2023-04-29T06:43:11.427Z,92.90
2023-04-29T06:43:51.148Z,92.70
2023-04-29T06:44:42.857Z,92.70
2023-04-29T06:45:34.225Z,92.60
2023-04-29T06:46:27.946Z,92.00
2023-04-29T06:47:16.396Z,91.90
2023-04-29T06:47:55.754Z,92.10
2023-04-29T06:48:52.182Z,92.20
2023-04-29T06:49:24.991Z,92.30
2023-04-29T06:49:59.286Z,92.40
2023-04-29T06:50:34.830Z,92.70
2023-04-29T06:51:09.486Z,92.70
2023-04-29T06:51:44.617Z,92.80
2023-04-29T06:52:20.276Z,92.90
2023-04-29T06:52:54.906Z,92.60
2023-04-29T06:53:27.627Z,92.50
2023-04-29T06:54:03.729Z,92.10
2023-04-29T06:54:37.045Z,91.90
2023-04-29T06:55:12.661Z,91.60
2023-04-29T06:55:50.289Z,91.50
2023-04-29T06:56:24.029Z,91.40
2023-04-29T06:56:58.582Z,91.40
2023-04-29T06:57:32.695Z,91.40
2023-04-29T06:58:07.079Z,91.10
2023-04-29T06:58:42.239Z,90.90
2023-04-29T06:59:17.957Z,90.90
2023-04-29T06:59:53.771Z,90.70
2023-04-29T07:00:26.503Z,90.50
2023-04-29T07:01:04.186Z,90.30
2023-04-29T07:01:39.199Z,90.30
2023-04-29T07:02:15.252Z,90.10
2023-04-29T07:02:50.161Z,89.50
2023-04-29T07:03:26.179Z,89.10
2023-04-29T07:04:00.734Z,88.90
2023-04-29T07:04:34.424Z,88.80
2023-04-29T07:05:09.872Z,88.50
2023-04-29T07:05:46.245Z,88.10
2023-04-29T07:06:20.879Z,88.00
2023-04-29T07:06:55.054Z,88.20
2023-04-29T07:07:30.604Z,87.80
2023-04-29T07:08:05.970Z,87.60
2023-04-29T07:08:40.373Z,86.80
2023-04-29T07:09:14.951Z,86.00
2023-04-29T07:09:52.915Z,85.80
2023-04-29T07:10:28.890Z,85.70
2023-04-29T07:11:02.324Z,85.00
2023-04-29T07:11:36.792Z,84.00
2023-04-29T07:12:10.777Z,84.40
2023-04-29T07:12:44.245Z,85.00
2023-04-29T07:13:19.377Z,85.20
2023-04-29T07:13:54.656Z,85.20
2023-04-29T07:14:30.616Z,85.50
2023-04-29T07:15:06.568Z,85.40
2023-04-29T07:15:41.246Z,85.50
2023-04-29T07:16:20.807Z,85.30
2023-04-29T07:16:56.722Z,84.90
2023-04-29T07:17:31.161Z,84.40
2023-04-29T07:18:04.844Z,83.90
2023-04-29T07:18:40.446Z,82.20
2023-04-29T07:19:14.277Z,81.20
2023-04-29T07:19:46.879Z,80.70
2023-04-29T07:20:22.485Z,80.80
2023-04-29T07:20:56.350Z,80.00
2023-04-29T07:21:31.975Z,78.60
2023-04-29T07:22:06.379Z,77.90
2023-04-29T07:22:40.838Z,77.90
2023-04-29T07:23:15.499Z,78.60
2023-04-29T07:23:49.870Z,78.30
2023-04-29T07:24:24.523Z,78.10
2023-04-29T07:24:58.294Z,76.80
2023-04-29T07:25:33.294Z,75.70
2023-04-29T07:26:14.552Z,75.50
2023-04-29T07:26:51.761Z,74.70
2023-04-29T07:27:25.188Z,74.00
2023-04-29T07:28:00.185Z,74.10
2023-04-29T07:28:36.752Z,73.10
2023-04-29T07:29:10.055Z,70.50
2023-04-29T07:29:45.389Z,68.90
2023-04-29T07:30:20.596Z,67.20
2023-04-29T07:30:55.035Z,66.60
2023-04-29T07:31:30.070Z,65.40
2023-04-29T07:32:03.200Z,65.00
2023-04-29T07:32:37.867Z,64.30
2023-04-29T07:33:14.643Z,63.90
2023-04-29T07:33:49.524Z,63.10
2023-04-29T07:34:24.897Z,62.70
2023-04-29T07:34:59.532Z,62.30
2023-04-29T07:35:34.225Z,62.50
2023-04-29T07:36:11.705Z,63.10
2023-04-29T07:36:45.409Z,63.20
2023-04-29T07:37:19.602Z,63.40
2023-04-29T07:37:52.491Z,63.70
2023-04-29T07:38:29.222Z,63.10
2023-04-29T07:39:04.962Z,63.30
2023-04-29T07:39:39.221Z,63.00
2023-04-29T07:40:13.944Z,63.00
2023-04-29T07:40:48.912Z,63.40
2023-04-29T07:41:23.392Z,63.40
2023-04-29T07:42:00.167Z,63.80
2023-04-29T07:42:35.385Z,64.40
2023-04-29T07:43:11.782Z,64.40
2023-04-29T07:43:46.037Z,65.00
2023-04-29T07:44:19.749Z,65.30
2023-04-29T07:44:56.059Z,65.80
2023-04-29T07:45:30.676Z,65.90
2023-04-29T07:46:04.993Z,66.20
2023-04-29T07:46:39.625Z,66.50
2023-04-29T07:47:13.798Z,66.90
2023-04-29T07:47:47.829Z,66.60
2023-04-29T07:48:24.932Z,67.40
2023-04-29T07:48:59.246Z,67.30
2023-04-29T07:49:33.314Z,67.40
2023-04-29T07:50:10.408Z,68.20
2023-04-29T07:50:46.010Z,68.80
2023-04-29T07:51:19.941Z,68.90
2023-04-29T07:51:55.109Z,69.80
2023-04-29T07:52:28.583Z,70.10
2023-04-29T07:53:02.904Z,70.20
2023-04-29T07:53:37.817Z,70.30
2023-04-29T07:54:11.388Z,71.60
2023-04-29T07:54:46.275Z,72.60
2023-04-29T07:55:21.438Z,74.40
2023-04-29T07:55:55.350Z,74.00
2023-04-29T07:56:32.358Z,73.60
2023-04-29T07:57:06.108Z,72.40
2023-04-29T07:57:40.056Z,71.80
2023-04-29T07:58:14.791Z,70.50
2023-04-29T07:58:48.581Z,69.80
2023-04-29T07:59:23.671Z,69.10
2023-04-29T08:00:00.368Z,68.70
2023-04-29T08:00:33.972Z,68.00
2023-04-29T08:01:09.312Z,68.00
2023-04-29T08:01:43.771Z,67.80
2023-04-29T08:02:17.575Z,67.70
2023-04-29T08:02:53.236Z,67.00
2023-04-29T08:03:29.948Z,66.10
2023-04-29T08:04:03.950Z,65.40
2023-04-29T08:04:41.797Z,65.70
2023-04-29T08:05:19.500Z,65.20
2023-04-29T08:05:56.961Z,64.20
2023-04-29T08:06:30.938Z,63.70
2023-04-29T08:07:06.541Z,63.90
2023-04-29T08:07:42.586Z,64.00
2023-04-29T08:08:16.533Z,64.70
2023-04-29T08:08:51.545Z,64.30
2023-04-29T08:09:26.279Z,63.80
2023-04-29T08:10:01.471Z,63.10
2023-04-29T08:10:38.650Z,62.90
2023-04-29T08:11:19.401Z,63.10
2023-04-29T08:11:54.649Z,63.20
2023-04-29T08:12:28.577Z,63.30
2023-04-29T08:13:02.125Z,63.20
2023-04-29T08:13:36.859Z,63.00
2023-04-29T08:14:10.408Z,62.80
2023-04-29T08:14:46.266Z,62.30
2023-04-29T08:15:22.242Z,62.60
2023-04-29T08:15:55.061Z,62.80
2023-04-29T08:16:29.520Z,63.00
2023-04-29T08:17:04.311Z,63.30
2023-04-29T08:17:38.203Z,63.40
2023-04-29T08:18:12.213Z,63.40
2023-04-29T08:18:45.811Z,63.10
2023-04-29T08:19:19.432Z,63.00
2023-04-29T08:19:54.747Z,63.10
2023-04-29T08:20:29.524Z,62.90
2023-04-29T08:21:04.082Z,62.90
2023-04-29T08:21:39.645Z,62.90
2023-04-29T08:22:15.119Z,63.00
2023-04-29T08:22:50.359Z,63.60
2023-04-29T08:23:25.320Z,64.20
2023-04-29T08:24:00.208Z,64.30
2023-04-29T08:24:35.332Z,64.70
2023-04-29T08:25:12.160Z,65.80
2023-04-29T08:25:46.003Z,66.90
2023-04-29T08:26:19.055Z,67.70
2023-04-29T08:26:53.900Z,68.40
2023-04-29T08:27:28.006Z,67.90
2023-04-29T08:28:03.741Z,65.30
2023-04-29T08:28:36.524Z,63.50
2023-04-29T08:29:10.468Z,62.60
2023-04-29T08:29:46.228Z,61.80
2023-04-29T08:30:21.913Z,61.70
2023-04-29T08:30:56.702Z,61.70
2023-04-29T08:31:31.399Z,61.30
2023-04-29T08:32:05.722Z,60.60
2023-04-29T08:32:40.245Z,60.20
2023-04-29T08:33:15.205Z,59.30
2023-04-29T08:33:48.515Z,59.10
2023-04-29T08:34:22.947Z,58.90
2023-04-29T08:34:56.971Z,58.80
2023-04-29T08:35:32.213Z,58.70
2023-04-29T08:36:11.563Z,58.80
2023-04-29T08:36:45.661Z,59.10
2023-04-29T08:37:21.296Z,58.70
2023-04-29T08:37:55.814Z,59.20
2023-04-29T08:38:30.319Z,59.40
2023-04-29T08:39:05.881Z,59.60
2023-04-29T08:39:40.370Z,59.90
2023-04-29T08:40:16.714Z,60.20
2023-04-29T08:40:50.720Z,60.20
2023-04-29T08:41:26.494Z,59.60
2023-04-29T08:42:00.432Z,60.00
2023-04-29T08:42:37.063Z,60.70
2023-04-29T08:43:11.691Z,61.00
2023-04-29T08:43:47.830Z,61.00
2023-04-29T08:44:22.574Z,61.50
2023-04-29T08:44:56.669Z,61.30
2023-04-29T08:45:34.026Z,61.40
2023-04-29T08:46:08.542Z,61.50
2023-04-29T08:46:44.376Z,61.40
2023-04-29T08:47:19.107Z,61.60
2023-04-29T08:47:54.873Z,61.50
2023-04-29T08:48:31.348Z,61.70
2023-04-29T08:49:06.572Z,62.10
2023-04-29T08:49:41.427Z,61.80
2023-04-29T08:50:17.708Z,62.20
2023-04-29T08:50:52.177Z,63.10
2023-04-29T08:51:27.055Z,62.60
2023-04-29T08:52:01.285Z,62.60
2023-04-29T08:52:34.913Z,63.00
2023-04-29T08:53:11.089Z,62.50
2023-04-29T08:53:45.014Z,62.60
2023-04-29T08:54:21.269Z,62.60
2023-04-29T08:54:57.563Z,62.70
2023-04-29T08:55:31.625Z,62.80
2023-04-29T08:56:15.290Z,62.60
2023-04-29T08:56:53.161Z,62.30
2023-04-29T08:57:29.147Z,62.40
2023-04-29T08:58:05.620Z,62.50
2023-04-29T08:58:42.111Z,62.50
2023-04-29T08:59:19.080Z,63.00
2023-04-29T08:59:53.289Z,63.40
2023-04-29T09:00:29.469Z,63.30
2023-04-29T09:01:07.559Z,63.30
2023-04-29T09:01:44.013Z,63.40
2023-04-29T09:02:18.969Z,63.40
2023-04-29T09:02:58.241Z,63.20
2023-04-29T09:03:37.928Z,63.20
2023-04-29T09:04:20.045Z,63.20
2023-04-29T09:05:00.939Z,63.30
2023-04-29T09:05:37.672Z,63.50
2023-04-29T09:06:11.953Z,63.90
2023-04-29T09:06:47.530Z,64.40
2023-04-29T09:07:23.040Z,63.90
2023-04-29T09:07:59.827Z,63.30
2023-04-29T09:08:35.429Z,62.90
2023-04-29T09:09:09.810Z,62.60
2023-04-29T09:09:44.738Z,63.00
2023-04-29T09:10:19.431Z,63.40
2023-04-29T09:10:54.095Z,63.50
2023-04-29T09:11:29.586Z,62.90
2023-04-29T09:12:03.892Z,62.00
2023-04-29T09:12:38.418Z,61.50
2023-04-29T09:13:25.709Z,61.30
2023-04-29T09:14:03.279Z,60.40
2023-04-29T09:14:37.229Z,59.90
2023-04-29T09:15:12.612Z,59.50
2023-04-29T09:15:48.714Z,59.50
2023-04-29T09:16:24.498Z,59.60
2023-04-29T09:16:58.892Z,60.60
2023-04-29T09:17:43.223Z,59.30
2023-04-29T09:18:45.554Z,58.50
2023-04-29T09:19:32.961Z,57.70
2023-04-29T09:20:29.801Z,57.40
2023-04-29T09:21:14.247Z,57.50
2023-04-29T09:21:57.401Z,57.80
2023-04-29T09:22:49.069Z,56.80
2023-04-29T09:23:38.683Z,56.00
2023-04-29T09:24:12.694Z,55.80
2023-04-29T09:24:49.179Z,56.00
2023-04-29T09:25:22.771Z,55.50
2023-04-29T09:25:57.246Z,56.60
2023-04-29T09:26:45.087Z,57.00
2023-04-29T09:27:28.520Z,56.20
2023-04-29T09:28:16.652Z,55.70
2023-04-29T09:29:08.174Z,55.70
2023-04-29T09:30:02.517Z,55.80
2023-04-29T09:30:47.823Z,56.10
2023-04-29T09:31:31.285Z,56.20
2023-04-29T09:32:20.568Z,56.00
2023-04-29T09:33:09.608Z,56.00
2023-04-29T09:33:54.462Z,56.20
2023-04-29T09:34:39.213Z,56.30
2023-04-29T09:35:26.071Z,56.70
2023-04-29T09:36:01.651Z,56.40
2023-04-29T09:36:40.819Z,56.50